createdAt,value
2022-08-21T00:01:53.146Z,95686.28
2022-08-21T00:04:22.102Z,95685.19
2022-08-21T00:06:50.937Z,95675.97
2022-08-21T00:09:19.306Z,95683.72
2022-08-21T00:11:49.776Z,95683.50
2022-08-21T00:14:18.527Z,95682.94
2022-08-21T00:16:46.941Z,95680.50
2022-08-21T00:19:14.631Z,95679.69
2022-08-21T00:21:44.353Z,95683.31
2022-08-21T00:24:12.316Z,95678.88
2022-08-21T00:26:40.423Z,95669.47
2022-08-21T00:29:09.450Z,95675.53
2022-08-21T00:31:37.414Z,95674.91
2022-08-21T00:34:05.950Z,95666.25
2022-08-21T00:36:33.610Z,95675.06
2022-08-21T00:39:01.772Z,95669.59
2022-08-21T00:41:37.532Z,95671.22
2022-08-21T00:44:10.487Z,95670.19
2022-08-21T00:46:40.067Z,95662.19
2022-08-21T00:49:09.686Z,95660.78
2022-08-21T00:51:42.185Z,95660.22
2022-08-21T00:54:18.311Z,95658.94
2022-08-21T00:56:48.987Z,95653.94
2022-08-21T00:59:21.109Z,95659.97
2022-08-21T01:01:50.745Z,95656.75
2022-08-21T01:04:19.279Z,95659.50
2022-08-21T01:06:47.893Z,95662.78
2022-08-21T01:09:16.726Z,95654.63
2022-08-21T01:11:44.856Z,95657.44
2022-08-21T01:14:13.881Z,95659.50
2022-08-21T01:16:47.266Z,95659.88
2022-08-21T01:19:16.006Z,95662.53
2022-08-21T01:21:45.701Z,95659.75
2022-08-21T01:24:14.003Z,95661.38
2022-08-21T01:26:43.763Z,95662.75
2022-08-21T01:29:18.567Z,95651.03
2022-08-21T01:31:46.919Z,95663.19
2022-08-21T01:34:16.574Z,95665.28
2022-08-21T01:36:46.723Z,95650.03
2022-08-21T01:39:15.428Z,95651.22
2022-08-21T01:41:43.780Z,95641.41
2022-08-21T01:44:11.431Z,95642.22
2022-08-21T01:46:39.541Z,95646.47
2022-08-21T01:49:07.564Z,95641.19
2022-08-21T01:51:35.654Z,95644.50
2022-08-21T01:54:05.006Z,95641.59
2022-08-21T01:56:38.730Z,95640.50
2022-08-21T01:59:06.377Z,95634.88
2022-08-21T02:01:34.043Z,95635.78
2022-08-21T02:04:01.743Z,95633.09
2022-08-21T02:06:30.088Z,95625.75
2022-08-21T02:08:57.894Z,95624.91
2022-08-21T02:11:27.238Z,95621.78
2022-08-21T02:13:54.858Z,95621.50
2022-08-21T02:16:22.498Z,95623.13
2022-08-21T02:18:50.147Z,95619.66
2022-08-21T02:21:17.808Z,95619.34
2022-08-21T02:23:46.129Z,95615.03
2022-08-21T02:26:14.857Z,95616.38
2022-08-21T02:28:44.231Z,95609.25
2022-08-21T02:31:12.736Z,95611.03
2022-08-21T02:33:40.417Z,95613.66
2022-08-21T02:36:11.425Z,95613.66
2022-08-21T02:38:40.522Z,95619.50
2022-08-21T02:41:11.595Z,95621.50
2022-08-21T02:43:39.251Z,95615.88
2022-08-21T02:46:10.739Z,95615.28
2022-08-21T02:48:39.014Z,95615.72
2022-08-21T02:51:10.111Z,95619.06
2022-08-21T02:53:37.963Z,95618.47
2022-08-21T02:56:09.726Z,95619.88
2022-08-21T02:58:41.423Z,95616.63
2022-08-21T03:01:12.187Z,95613.84
2022-08-21T03:03:44.160Z,95614.81
2022-08-21T03:06:15.145Z,95622.13
2022-08-21T03:08:45.938Z,95621.94
2022-08-21T03:11:14.945Z,95619.03
2022-08-21T03:13:43.526Z,95612.88
2022-08-21T03:16:12.559Z,95616.00
2022-08-21T03:18:40.679Z,95617.03
2022-08-21T03:21:08.511Z,95613.19
2022-08-21T03:23:36.719Z,95621.66
2022-08-21T03:26:06.093Z,95614.16
2022-08-21T03:28:35.858Z,95622.09
2022-08-21T03:31:03.888Z,95615.28
2022-08-21T03:33:33.006Z,95628.13
2022-08-21T03:36:07.261Z,95622.34
2022-08-21T03:38:36.146Z,95617.94
2022-08-21T03:41:05.518Z,95622.06
2022-08-21T03:43:34.486Z,95621.25
2022-08-21T03:46:03.020Z,95623.53
2022-08-21T03:48:31.097Z,95621.25
2022-08-21T03:51:00.774Z,95616.16
2022-08-21T03:53:28.751Z,95631.97
2022-08-21T03:55:56.939Z,95633.94
2022-08-21T03:58:27.730Z,95634.09
2022-08-21T04:00:59.272Z,95622.84
2022-08-21T04:03:28.155Z,95622.84
2022-08-21T04:05:56.715Z,95629.88
2022-08-21T04:08:26.096Z,95631.47
2022-08-21T04:10:58.084Z,95628.31
2022-08-21T04:13:27.631Z,95632.44
2022-08-21T04:15:55.747Z,95631.69
2022-08-21T04:18:23.397Z,95634.63
2022-08-21T04:20:54.720Z,95639.16
2022-08-21T04:23:25.831Z,95639.97
2022-08-21T04:25:54.999Z,95650.63
2022-08-21T04:28:23.560Z,95645.16
2022-08-21T04:30:57.433Z,95650.03
2022-08-21T04:33:26.196Z,95644.94
2022-08-21T04:35:53.932Z,95660.09
2022-08-21T04:38:23.264Z,95660.09
2022-08-21T04:40:52.543Z,95660.53
2022-08-21T04:43:21.514Z,95662.53
2022-08-21T04:45:50.935Z,95662.69
2022-08-21T04:48:22.446Z,95661.88
2022-08-21T04:50:57.197Z,95651.38
2022-08-21T04:53:35.558Z,95653.91
2022-08-21T04:56:10.144Z,95653.66
2022-08-21T04:58:41.446Z,95656.09
2022-08-21T05:01:12.512Z,95654.00
2022-08-21T05:03:42.370Z,95657.13
2022-08-21T05:06:12.685Z,95656.50
2022-08-21T05:08:42.694Z,95651.69
2022-08-21T05:11:11.955Z,95655.41
2022-08-21T05:13:41.967Z,95663.69
2022-08-21T05:16:10.155Z,95658.75
2022-08-21T05:18:38.139Z,95657.03
2022-08-21T05:21:06.126Z,95667.09
2022-08-21T05:23:34.808Z,95668.28
2022-08-21T05:26:02.568Z,95662.78
2022-08-21T05:28:32.421Z,95664.91
2022-08-21T05:31:00.383Z,95664.69
2022-08-21T05:33:28.955Z,95667.50
2022-08-21T05:35:57.657Z,95667.91
2022-08-21T05:38:27.343Z,95671.75
2022-08-21T05:40:55.253Z,95665.06
2022-08-21T05:43:23.436Z,95670.38
2022-08-21T05:45:52.410Z,95669.00
2022-08-21T05:48:23.161Z,95668.34
2022-08-21T05:50:52.650Z,95665.66
2022-08-21T05:53:22.371Z,95665.09
2022-08-21T05:55:50.596Z,95667.28
2022-08-21T05:58:22.118Z,95659.66
2022-08-21T06:00:52.868Z,95655.91
2022-08-21T06:03:23.742Z,95663.72
2022-08-21T06:05:51.555Z,95657.66
2022-08-21T06:08:20.162Z,95660.34
2022-08-21T06:10:49.537Z,95659.81
2022-08-21T06:13:19.830Z,95661.31
2022-08-21T06:15:47.708Z,95661.28
2022-08-21T06:18:17.842Z,95665.56
2022-08-21T06:20:46.078Z,95663.63
2022-08-21T06:23:14.218Z,95661.97
2022-08-21T06:25:41.870Z,95666.00
2022-08-21T06:28:11.551Z,95665.03
2022-08-21T06:30:41.009Z,95664.00
2022-08-21T06:33:09.923Z,95659.28
2022-08-21T06:35:41.398Z,95662.88
2022-08-21T06:38:10.118Z,95661.50
2022-08-21T06:40:38.956Z,95661.34
2022-08-21T06:43:15.086Z,95661.50
2022-08-21T06:45:43.315Z,95659.72
2022-08-21T06:48:15.643Z,95662.81
2022-08-21T06:50:48.146Z,95658.09
2022-08-21T06:53:19.316Z,95653.06
2022-08-21T06:55:47.115Z,95650.16
2022-08-21T06:58:15.173Z,95655.16
2022-08-21T07:00:45.895Z,95661.16
2022-08-21T07:03:20.184Z,95654.41
2022-08-21T07:05:49.179Z,95658.44
2022-08-21T07:08:17.483Z,95658.41
2022-08-21T07:10:46.052Z,95658.75
2022-08-21T07:13:14.174Z,95654.03
2022-08-21T07:15:41.870Z,95654.84
2022-08-21T07:18:10.335Z,95650.38
2022-08-21T07:20:38.454Z,95647.97
2022-08-21T07:23:12.727Z,95655.03
2022-08-21T07:25:40.826Z,95647.28
2022-08-21T07:28:08.782Z,95649.59
2022-08-21T07:30:36.393Z,95648.09
2022-08-21T07:33:04.060Z,95645.78
2022-08-21T07:35:32.220Z,95640.78
2022-08-21T07:37:59.834Z,95649.97
2022-08-21T07:40:28.892Z,95655.34
2022-08-21T07:42:56.672Z,95652.97
2022-08-21T07:45:25.514Z,95659.06
2022-08-21T07:47:57.350Z,95657.09
2022-08-21T07:50:26.304Z,95652.47
2022-08-21T07:52:54.611Z,95648.19
2022-08-21T07:55:23.852Z,95648.75
2022-08-21T07:57:52.855Z,95644.63
2022-08-21T08:00:23.078Z,95639.44
2022-08-21T08:02:52.592Z,95649.72
2022-08-21T08:05:23.974Z,95640.94
2022-08-21T08:07:51.745Z,95644.41
2022-08-21T08:10:20.841Z,95639.31
2022-08-21T08:12:49.008Z,95645.97
2022-08-21T08:15:22.207Z,95646.84
2022-08-21T08:17:50.409Z,95635.13
2022-08-21T08:20:19.423Z,95638.16
2022-08-21T08:22:50.227Z,95633.84
2022-08-21T08:25:20.407Z,95627.41
2022-08-21T08:27:48.346Z,95629.00
2022-08-21T08:30:20.378Z,95633.59
2022-08-21T08:32:48.965Z,95629.81
2022-08-21T08:35:17.990Z,95624.97
2022-08-21T08:37:47.366Z,95621.97
2022-08-21T08:40:27.222Z,95626.03
2022-08-21T08:42:55.505Z,95622.50
2022-08-21T08:45:27.217Z,95619.44
2022-08-21T08:48:06.010Z,95632.03
2022-08-21T08:50:45.990Z,95619.94
2022-08-21T08:53:19.223Z,95622.63
2022-08-21T08:55:48.382Z,95619.63
2022-08-21T08:58:22.291Z,95625.84
2022-08-21T09:00:53.860Z,95623.97
2022-08-21T09:03:24.312Z,95623.16
2022-08-21T09:06:00.221Z,95624.53
2022-08-21T09:08:50.828Z,95615.09
2022-08-21T09:11:29.474Z,95629.38
2022-08-21T09:14:07.591Z,95632.03
2022-08-21T09:16:46.583Z,95628.00
2022-08-21T09:19:28.898Z,95628.75
2022-08-21T09:22:05.577Z,95622.69
2022-08-21T09:24:40.296Z,95623.91
2022-08-21T09:27:11.235Z,95613.66
2022-08-21T09:29:41.858Z,95616.97
2022-08-21T09:32:19.464Z,95613.19
2022-08-21T09:34:59.154Z,95608.38
2022-08-21T09:37:27.834Z,95609.22
2022-08-21T09:39:55.499Z,95610.31
2022-08-21T09:42:26.223Z,95613.00
2022-08-21T09:45:11.549Z,95614.03
2022-08-21T09:47:40.535Z,95618.38
2022-08-21T09:50:15.353Z,95613.22
2022-08-21T09:52:49.769Z,95605.25
2022-08-21T09:55:50.773Z,95606.56
2022-08-21T09:58:20.594Z,95611.50
2022-08-21T10:00:59.784Z,95601.53
2022-08-21T10:03:29.102Z,95604.09
2022-08-21T10:06:02.931Z,95607.63
2022-08-21T10:08:31.750Z,95605.56
2022-08-21T10:11:05.147Z,95601.66
2022-08-21T10:13:47.575Z,95599.25
2022-08-21T10:16:26.197Z,95594.78
2022-08-21T10:19:03.973Z,95593.28
2022-08-21T10:21:40.748Z,95589.47
2022-08-21T10:24:31.187Z,95592.34
2022-08-21T10:27:10.842Z,95599.09
2022-08-21T10:29:49.990Z,95588.94
2022-08-21T10:32:31.647Z,95582.75
2022-08-21T10:35:09.763Z,95585.97
2022-08-21T10:37:47.598Z,95587.75
2022-08-21T10:40:26.500Z,95578.25
2022-08-21T10:43:05.740Z,95573.81
2022-08-21T10:45:48.522Z,95575.56
2022-08-21T10:48:24.677Z,95573.47
2022-08-21T10:51:00.087Z,95573.94
2022-08-21T10:53:42.051Z,95570.41
2022-08-21T10:56:17.515Z,95568.31
2022-08-21T10:58:52.554Z,95559.00
2022-08-21T11:01:26.242Z,95554.63
2022-08-21T11:04:01.251Z,95547.78
2022-08-21T11:06:34.824Z,95550.78
2022-08-21T11:09:12.839Z,95546.63
2022-08-21T11:11:53.781Z,95550.22
2022-08-21T11:14:49.782Z,95557.25
2022-08-21T11:17:24.319Z,95552.19
2022-08-21T11:19:56.767Z,95549.63
2022-08-21T11:22:32.473Z,95548.72
2022-08-21T11:25:08.187Z,95540.84
2022-08-21T11:27:43.462Z,95550.59
2022-08-21T11:30:12.809Z,95538.25
2022-08-21T11:33:11.141Z,95539.66
2022-08-21T11:35:45.721Z,95535.88
2022-08-21T11:38:27.965Z,95538.31
2022-08-21T11:41:15.454Z,95528.91
2022-08-21T11:43:46.531Z,95530.44
2022-08-21T11:46:24.685Z,95527.44
2022-08-21T11:49:08.521Z,95527.50
2022-08-21T11:51:43.199Z,95527.97
2022-08-21T11:54:28.325Z,95523.06
2022-08-21T11:57:03.283Z,95522.03
2022-08-21T11:59:41.095Z,95526.63
2022-08-21T12:02:15.556Z,95517.72
2022-08-21T12:04:49.945Z,95524.69
2022-08-21T12:07:32.412Z,95520.03
2022-08-21T12:10:02.758Z,95517.63
2022-08-21T12:12:33.286Z,95514.41
2022-08-21T12:15:18.688Z,95515.13
2022-08-21T12:18:00.185Z,95512.22
2022-08-21T12:20:38.144Z,95507.19
2022-08-21T12:23:18.118Z,95509.28
2022-08-21T12:26:00.565Z,95501.16
2022-08-21T12:28:31.059Z,95501.34
2022-08-21T12:30:59.295Z,95499.69
2022-08-21T12:33:32.182Z,95503.34
2022-08-21T12:36:06.748Z,95499.25
2022-08-21T12:38:41.519Z,95491.22
2022-08-21T12:41:19.282Z,95495.75
2022-08-21T12:43:50.705Z,95481.25
2022-08-21T12:46:21.285Z,95488.28
2022-08-21T12:48:54.035Z,95477.59
2022-08-21T12:51:26.570Z,95473.97
2022-08-21T12:53:57.230Z,95472.00
2022-08-21T12:56:28.431Z,95468.06
2022-08-21T12:58:58.210Z,95467.88
2022-08-21T13:01:29.499Z,95458.91
2022-08-21T13:04:04.987Z,95462.25
2022-08-21T13:06:39.449Z,95466.81
2022-08-21T13:09:09.738Z,95463.06
2022-08-21T13:11:40.991Z,95464.47
2022-08-21T13:14:19.435Z,95461.09
2022-08-21T13:16:48.196Z,95460.22
2022-08-21T13:19:23.904Z,95462.34
2022-08-21T13:21:53.775Z,95465.63
2022-08-21T13:24:41.860Z,95457.47
2022-08-21T13:27:27.178Z,95468.78
2022-08-21T13:30:12.016Z,95465.50
2022-08-21T13:32:45.363Z,95462.72
2022-08-21T13:35:16.674Z,95457.72
2022-08-21T13:37:46.738Z,95461.66
2022-08-21T13:40:17.892Z,95454.28
2022-08-21T13:42:49.368Z,95452.22
2022-08-21T13:45:26.054Z,95445.22
2022-08-21T13:47:54.578Z,95447.78
2022-08-21T13:50:25.288Z,95444.53
2022-08-21T13:53:02.342Z,95443.44
2022-08-21T13:55:38.981Z,95444.38
2022-08-21T13:58:08.703Z,95439.84
2022-08-21T14:00:45.319Z,95456.19
2022-08-21T14:03:24.963Z,95456.31
2022-08-21T14:05:52.601Z,95445.31
2022-08-21T14:08:30.273Z,95452.28
2022-08-21T14:10:59.498Z,95447.75
2022-08-21T14:13:39.113Z,95446.59
2022-08-21T14:16:15.440Z,95442.31
2022-08-21T14:18:49.737Z,95445.25
2022-08-21T14:21:29.718Z,95444.91
2022-08-21T14:24:06.805Z,95444.72
2022-08-21T14:26:38.715Z,95446.66
2022-08-21T14:29:10.978Z,95447.31
2022-08-21T14:31:41.851Z,95445.91
2022-08-21T14:34:15.689Z,95437.31
2022-08-21T14:36:48.491Z,95441.22
2022-08-21T14:39:16.238Z,95445.56
2022-08-21T14:41:44.671Z,95439.91
2022-08-21T14:44:14.726Z,95442.88
2022-08-21T14:46:55.667Z,95446.13
2022-08-21T14:49:29.063Z,95437.69
2022-08-21T14:51:59.318Z,95438.94
2022-08-21T14:54:31.458Z,95437.22
2022-08-21T14:57:02.541Z,95437.47
2022-08-21T14:59:33.432Z,95438.38
2022-08-21T15:02:01.745Z,95432.16
2022-08-21T15:04:29.431Z,95429.38
2022-08-21T15:06:57.573Z,95431.00
2022-08-21T15:09:25.688Z,95425.44
2022-08-21T15:11:55.246Z,95431.50
2022-08-21T15:14:26.567Z,95432.19
2022-08-21T15:16:55.609Z,95430.00
2022-08-21T15:19:24.574Z,95435.34
2022-08-21T15:21:52.646Z,95425.16
2022-08-21T15:24:20.754Z,95427.38
2022-08-21T15:26:48.878Z,95415.06
2022-08-21T15:29:19.028Z,95413.22
2022-08-21T15:31:57.054Z,95409.63
2022-08-21T15:34:27.258Z,95414.56
2022-08-21T15:36:57.234Z,95414.00
2022-08-21T15:39:31.345Z,95405.44
2022-08-21T15:42:01.066Z,95399.81
2022-08-21T15:44:38.618Z,95403.34
2022-08-21T15:47:14.700Z,95393.47
2022-08-21T15:49:45.839Z,95392.97
2022-08-21T15:52:14.299Z,95393.50
2022-08-21T15:54:42.156Z,95391.63
2022-08-21T15:57:12.442Z,95390.44
2022-08-21T15:59:42.757Z,95392.53
2022-08-21T16:02:16.317Z,95388.44
2022-08-21T16:04:44.109Z,95394.69
2022-08-21T16:07:12.918Z,95399.63
2022-08-21T16:09:40.699Z,95396.97
2022-08-21T16:12:10.354Z,95391.97
2022-08-21T16:14:38.694Z,95393.13
2022-08-21T16:17:07.409Z,95379.91
2022-08-21T16:19:38.292Z,95386.50
2022-08-21T16:22:06.110Z,95391.72
2022-08-21T16:24:34.193Z,95385.81
2022-08-21T16:27:02.699Z,95392.53
2022-08-21T16:29:35.496Z,95387.06
2022-08-21T16:32:05.756Z,95384.81
2022-08-21T16:34:34.011Z,95392.47
2022-08-21T16:37:03.019Z,95388.94
2022-08-21T16:39:30.735Z,95389.13
2022-08-21T16:41:58.421Z,95387.94
2022-08-21T16:44:26.815Z,95381.25
2022-08-21T16:46:57.863Z,95381.22
2022-08-21T16:49:25.509Z,95372.16
2022-08-21T16:51:53.552Z,95376.94
2022-08-21T16:54:22.542Z,95373.38
2022-08-21T16:56:51.456Z,95370.34
2022-08-21T16:59:21.877Z,95377.56
2022-08-21T17:01:50.124Z,95369.69
2022-08-21T17:04:18.910Z,95386.06
2022-08-21T17:06:46.771Z,95375.59
2022-08-21T17:09:14.504Z,95374.34
2022-08-21T17:11:47.611Z,95379.41
2022-08-21T17:14:19.529Z,95376.78
2022-08-21T17:16:50.212Z,95375.53
2022-08-21T17:19:18.780Z,95373.69
2022-08-21T17:21:47.602Z,95386.34
2022-08-21T17:24:15.861Z,95375.53
2022-08-21T17:26:47.086Z,95373.69
2022-08-21T17:29:16.379Z,95371.69
2022-08-21T17:31:47.099Z,95379.16
2022-08-21T17:34:15.930Z,95378.00
2022-08-21T17:36:43.966Z,95381.41
2022-08-21T17:39:12.903Z,95384.22
2022-08-21T17:41:57.787Z,95382.50
2022-08-21T17:44:26.306Z,95380.72
2022-08-21T17:46:54.622Z,95384.03
2022-08-21T17:49:22.321Z,95384.66
2022-08-21T17:51:50.385Z,95379.88
2022-08-21T17:54:18.163Z,95377.78
2022-08-21T17:56:46.477Z,95377.34
2022-08-21T17:59:16.417Z,95384.16
2022-08-21T18:01:47.038Z,95386.31
2022-08-21T18:04:14.945Z,95377.22
2022-08-21T18:06:43.579Z,95379.16
2022-08-21T18:09:12.862Z,95387.84
2022-08-21T18:11:43.197Z,95386.25
2022-08-21T18:14:11.923Z,95378.44
2022-08-21T18:16:41.855Z,95385.69
2022-08-21T18:19:15.282Z,95387.88
2022-08-21T18:21:43.705Z,95390.53
2022-08-21T18:24:11.364Z,95392.41
2022-08-21T18:26:41.054Z,95396.41
2022-08-21T18:29:11.578Z,95401.22
2022-08-21T18:31:43.938Z,95400.91
2022-08-21T18:34:25.781Z,95400.09
2022-08-21T18:36:55.106Z,95401.66
2022-08-21T18:39:36.301Z,95410.75
2022-08-21T18:42:11.820Z,95406.63
2022-08-21T18:44:40.764Z,95413.81
2022-08-21T18:47:14.664Z,95417.28
2022-08-21T18:49:42.759Z,95411.31
2022-08-21T18:54:59.427Z,95425.91
2022-08-21T18:57:34.928Z,95428.78
2022-08-21T19:00:07.799Z,95431.94
2022-08-21T19:02:37.855Z,95425.13
2022-08-21T19:05:13.917Z,95422.38
2022-08-21T19:07:42.427Z,95421.53
2022-08-21T19:10:28.402Z,95421.94
2022-08-21T19:12:58.278Z,95418.28
2022-08-21T19:15:26.600Z,95433.25
2022-08-21T19:17:56.184Z,95426.94
2022-08-21T19:20:27.610Z,95431.06
2022-08-21T19:22:57.436Z,95432.06
2022-08-21T19:25:33.558Z,95428.25
2022-08-21T19:30:59.028Z,95424.94
2022-08-21T19:33:34.951Z,95417.84
2022-08-21T19:36:03.383Z,95430.28
2022-08-21T19:38:31.139Z,95426.66
2022-08-21T19:41:00.097Z,95428.94
2022-08-21T19:43:29.273Z,95424.78
2022-08-21T19:45:58.024Z,95423.28
2022-08-21T19:48:27.045Z,95430.25
2022-08-21T19:50:56.042Z,95430.34
2022-08-21T19:53:23.876Z,95430.91
2022-08-21T19:55:51.793Z,95431.88
2022-08-21T19:58:29.472Z,95431.81
2022-08-21T20:00:57.211Z,95424.63
2022-08-21T20:03:24.977Z,95429.41
2022-08-21T20:05:54.139Z,95419.84
2022-08-21T20:08:28.028Z,95419.19
2022-08-21T20:10:58.087Z,95427.13
2022-08-21T20:13:26.373Z,95422.19
2022-08-21T20:15:55.014Z,95423.75
2022-08-21T20:21:13.222Z,95421.84
2022-08-21T20:23:48.858Z,95419.47
2022-08-21T20:26:17.483Z,95421.56
2022-08-21T20:28:50.587Z,95421.97
2022-08-21T20:31:20.462Z,95423.50
2022-08-21T20:33:49.618Z,95414.56
2022-08-21T20:36:17.488Z,95421.78
2022-08-21T20:38:48.176Z,95412.59
2022-08-21T20:41:21.350Z,95413.31
2022-08-21T20:44:00.307Z,95417.13
2022-08-21T20:46:30.615Z,95419.91
2022-08-21T20:48:58.730Z,95411.56
2022-08-21T20:51:31.874Z,95418.28
2022-08-21T20:54:08.084Z,95404.59
2022-08-21T20:56:45.472Z,95416.78
2022-08-21T20:59:22.742Z,95406.69
2022-08-21T21:01:53.066Z,95414.44
2022-08-21T21:04:34.217Z,95405.66
2022-08-21T21:07:08.976Z,95414.22
2022-08-21T21:09:43.407Z,95406.59
2022-08-21T21:12:19.103Z,95403.91
2022-08-21T21:17:54.030Z,95405.09
2022-08-21T21:20:29.534Z,95412.00
2022-08-21T21:23:05.141Z,95404.59
2022-08-21T21:25:46.488Z,95407.22
2022-08-21T21:28:27.139Z,95410.22
2022-08-21T21:30:57.676Z,95409.19
2022-08-21T21:33:25.772Z,95412.56
2022-08-21T21:36:01.103Z,95411.41
2022-08-21T21:38:38.095Z,95410.59
2022-08-21T21:44:34.875Z,95412.88
2022-08-21T21:47:10.438Z,95406.84
2022-08-21T21:50:03.694Z,95404.97
2022-08-21T21:52:48.311Z,95406.41
2022-08-21T21:55:35.930Z,95408.03
2022-08-21T21:58:19.684Z,95407.22
2022-08-21T22:01:01.387Z,95412.88
2022-08-21T22:03:37.895Z,95406.28
2022-08-21T22:06:14.234Z,95410.72
2022-08-21T22:08:52.742Z,95418.47
2022-08-21T22:11:29.452Z,95411.06
2022-08-21T22:14:06.047Z,95416.41
2022-08-21T22:16:37.720Z,95420.91
2022-08-21T22:19:14.687Z,95415.56
2022-08-21T22:21:48.885Z,95410.59
2022-08-21T22:24:22.391Z,95416.03
2022-08-21T22:26:55.069Z,95409.50
2022-08-21T22:29:24.704Z,95399.59
2022-08-21T22:32:05.591Z,95411.88
2022-08-21T22:34:34.884Z,95416.06
2022-08-21T22:37:05.802Z,95415.41
2022-08-21T22:42:28.076Z,95411.16
2022-08-21T22:44:59.594Z,95421.75
2022-08-21T22:47:34.887Z,95417.31
2022-08-21T22:50:05.812Z,95421.84
2022-08-21T22:52:36.575Z,95416.94
2022-08-21T22:55:24.741Z,95420.63
2022-08-21T22:58:07.485Z,95428.00
2022-08-21T23:00:48.531Z,95419.88
2022-08-21T23:03:25.748Z,95419.13
2022-08-21T23:05:54.639Z,95410.56
2022-08-21T23:08:27.486Z,95413.81
2022-08-21T23:11:01.865Z,95423.28
2022-08-21T23:13:38.675Z,95411.31
2022-08-21T23:16:16.506Z,95417.31
2022-08-21T23:18:58.778Z,95408.75
2022-08-21T23:21:38.954Z,95406.16
2022-08-21T23:24:31.344Z,95401.63
2022-08-21T23:27:12.968Z,95402.25
2022-08-21T23:29:47.692Z,95407.13
2022-08-21T23:32:52.393Z,95402.69
2022-08-21T23:35:44.011Z,95405.91
2022-08-21T23:38:24.570Z,95405.72
2022-08-21T23:40:58.489Z,95407.47
2022-08-21T23:43:39.195Z,95395.00
2022-08-21T23:46:34.130Z,95400.47
2022-08-21T23:49:17.885Z,95397.88
2022-08-21T23:52:00.077Z,95392.78
2022-08-21T23:54:35.471Z,95392.78
2022-08-21T23:57:14.911Z,95396.63
